Weather at Broome International Airport

Public forecast

Using degrees Celsius for public forecast. Weather courtesy of forecast.io.

Current aviation weather report (METAR) for Broome International Airport

Retrieved 2022/05/21 22:00 UTC (6 minutes ago):

YBRM 212200Z AUTO 00000KT 9999 // NCD 20/19 Q1012 RF000/0000

Aviation forecast (TAF) for Broome International Airport

Retrieved 2022/05/21 18:38 UTC (3 hours ago):

TAF YBRM 211707Z 2118/2218 VRB03KT CAVOK FM220000 08005KT CAVOK FM220600 30008KT CAVOK FM221200 VRB03KT CAVOK